Time;durP1;ratioP1;P1;durP2;ratioP2;P2;SDS_P1;SDS_P2;PMS_P1;PMS_P2;Temp;Humidity;BMP_temperature;BMP_pressure;BME280_temperature;BME280_humidity;BME280_pressure;Samples;Min_cycle;Max_cycle;Signal;HPM_P1;HPM_P2
2021/09/28 00:02:05;;;;;;;1.07;0.90;;;;;;;17.65;84.07;96925.91;4974058;28;20173;-53
2021/09/28 00:04:31;;;;;;;1.83;0.60;;;;;;;17.53;84.62;96930.59;4974061;28;20196;-54
2021/09/28 00:06:56;;;;;;;5.27;0.90;;;;;;;17.68;84.70;96933.38;4974900;28;20532;-57
2021/09/28 00:09:21;;;;;;;1.13;0.90;;;;;;;17.49;85.17;96942.78;4974689;28;20180;-53
2021/09/28 00:11:50;;;;;;;0.60;0.60;;;;;;;17.37;85.71;96942.16;4974449;28;20197;-57
2021/09/28 00:14:17;;;;;;;0.70;0.70;;;;;;;17.39;85.57;96937.38;4974297;28;20178;-57
2021/09/28 00:16:42;;;;;;;1.63;0.67;;;;;;;17.43;85.21;96941.13;4974482;28;20418;-53
2021/09/28 00:19:08;;;;;;;0.50;0.50;;;;;;;17.31;85.09;96949.28;4974564;28;20464;-53
2021/09/28 00:21:33;;;;;;;1.20;0.60;;;;;;;17.49;84.93;96940.13;4974458;28;20166;-53
2021/09/28 00:23:58;;;;;;;0.83;0.83;;;;;;;17.54;83.73;96950.03;4974123;28;20174;-54
2021/09/28 00:26:24;;;;;;;1.43;0.83;;;;;;;17.29;84.93;96955.88;4974194;28;20677;-54
2021/09/28 00:28:49;;;;;;;2.53;0.70;;;;;;;17.20;85.34;96952.91;4974648;28;20205;-57
2021/09/28 00:31:15;;;;;;;0.97;0.80;;;;;;;17.08;85.24;96951.47;4974358;28;20250;-53
2021/09/28 00:33:40;;;;;;;0.80;0.60;;;;;;;16.88;86.17;96959.22;4973952;28;20170;-53
2021/09/28 00:36:06;;;;;;;0.60;0.60;;;;;;;16.77;87.95;96942.41;4974356;28;20182;-53
2021/09/28 00:38:31;;;;;;;0.63;0.63;;;;;;;16.82;87.43;96953.06;4974158;28;20197;-58
2021/09/28 00:40:57;;;;;;;0.80;0.80;;;;;;;16.73;87.26;96959.88;4974399;28;20173;-57
2021/09/28 00:43:23;;;;;;;0.80;0.80;;;;;;;16.36;89.87;96972.94;4973937;28;20170;-57
2021/09/28 00:45:48;;;;;;;1.03;0.77;;;;;;;16.29;91.08;96964.34;4972826;28;20265;-54
2021/09/28 00:48:14;;;;;;;3.03;1.00;;;;;;;16.36;91.39;96969.47;4974177;28;20185;-56
2021/09/28 00:50:40;;;;;;;0.90;0.90;;;;;;;16.53;91.59;96966.78;4974284;28;20225;-53
2021/09/28 00:53:05;;;;;;;0.67;0.67;;;;;;;16.37;92.60;96968.44;4973939;28;20179;-53
2021/09/28 00:55:31;;;;;;;1.30;0.70;;;;;;;16.23;93.10;96975.16;4974089;28;20570;-53
2021/09/28 00:57:58;;;;;;;1.47;1.10;;;;;;;16.19;93.01;96974.84;4974270;28;20576;-53
2021/09/28 01:00:24;;;;;;;1.50;0.80;;;;;;;16.32;92.67;96979.78;4974165;28;20178;-53
2021/09/28 01:02:51;;;;;;;2.00;1.10;;;;;;;16.37;91.56;96982.50;4972734;28;20496;-57
2021/09/28 01:05:16;;;;;;;1.23;1.03;;;;;;;16.45;90.72;96984.72;4973923;28;20501;-57
2021/09/28 01:07:41;;;;;;;1.37;0.90;;;;;;;16.47;90.37;96997.75;4973983;28;20444;-57
2021/09/28 01:10:08;;;;;;;2.13;1.10;;;;;;;16.56;90.10;96993.63;4974145;28;20180;-57
2021/09/28 01:12:33;;;;;;;1.63;1.00;;;;;;;16.67;89.11;97003.31;4974462;28;20166;-53
2021/09/28 01:14:59;;;;;;;3.40;1.30;;;;;;;16.69;90.08;97005.72;4976285;28;20497;-57
2021/09/28 01:17:24;;;;;;;1.70;1.30;;;;;;;16.15;87.93;97013.50;4977462;28;20606;-57
2021/09/28 01:19:50;;;;;;;1.50;0.93;;;;;;;16.20;88.70;97016.22;4977306;28;20178;-53
2021/09/28 01:22:17;;;;;;;4.73;1.40;;;;;;;16.33;88.91;97020.38;4977498;28;20170;-57
2021/09/28 01:24:44;;;;;;;2.40;1.03;;;;;;;16.40;88.27;97029.75;4976679;28;20202;-54
2021/09/28 01:27:10;;;;;;;1.90;0.93;;;;;;;16.15;87.51;97033.91;4977209;28;20453;-57
2021/09/28 01:29:35;;;;;;;2.43;0.80;;;;;;;16.05;88.15;97037.22;4977223;28;20429;-53
2021/09/28 01:32:00;;;;;;;1.50;0.83;;;;;;;16.03;87.02;97036.66;4977364;28;20177;-53
2021/09/28 01:34:26;;;;;;;2.50;1.13;;;;;;;16.16;86.52;97044.28;4976882;28;20173;-53
2021/09/28 01:36:51;;;;;;;2.40;0.93;;;;;;;16.23;85.17;97044.91;4977191;28;20178;-53
2021/09/28 01:39:17;;;;;;;5.03;1.00;;;;;;;16.11;86.28;97049.50;4977165;28;20553;-57
2021/09/28 01:41:43;;;;;;;1.93;1.00;;;;;;;16.06;85.73;97043.31;4977147;28;20170;-53
2021/09/28 01:44:14;;;;;;;1.13;1.03;;;;;;;16.08;85.48;97043.88;4976571;28;20468;-53
2021/09/28 01:46:41;;;;;;;2.10;1.07;;;;;;;16.06;85.22;97046.78;4976859;28;20202;-53
2021/09/28 01:49:08;;;;;;;2.10;1.30;;;;;;;16.08;85.67;97057.97;4977210;28;20417;-53
2021/09/28 01:51:33;;;;;;;5.07;1.20;;;;;;;16.12;85.18;97050.31;4976662;28;20448;-57
2021/09/28 01:53:59;;;;;;;3.03;1.20;;;;;;;16.17;86.28;97047.72;4976589;28;20441;-57
2021/09/28 01:56:26;;;;;;;5.30;1.20;;;;;;;16.18;86.54;97050.13;4976623;28;20230;-53
2021/09/28 01:58:56;;;;;;;3.97;1.20;;;;;;;16.29;84.33;97043.94;4976754;28;20420;-58
2021/09/28 02:01:22;;;;;;;1.00;0.77;;;;;;;16.34;84.93;97044.00;4976846;28;20409;-57
2021/09/28 02:03:47;;;;;;;1.70;0.90;;;;;;;16.27;84.70;97053.97;4976333;28;20471;-53
2021/09/28 02:06:14;;;;;;;1.70;1.27;;;;;;;16.20;84.93;97048.03;4976332;28;20198;-57
2021/09/28 02:08:40;;;;;;;3.63;1.00;;;;;;;16.24;85.08;97043.06;4976698;28;20185;-53
2021/09/28 02:11:05;;;;;;;3.50;0.93;;;;;;;16.26;85.34;97043.63;4976465;28;20409;-57
2021/09/28 02:13:31;;;;;;;1.80;1.17;;;;;;;16.26;85.56;97036.47;4976217;28;20253;-53
2021/09/28 02:15:56;;;;;;;3.80;1.20;;;;;;;16.36;85.08;97043.75;4976470;28;20186;-57
2021/09/28 02:18:22;;;;;;;1.47;0.90;;;;;;;16.42;84.61;97045.44;4976384;28;20166;-57
2021/09/28 02:20:47;;;;;;;2.07;1.20;;;;;;;16.53;84.59;97044.53;4976530;28;20229;-57
2021/09/28 02:23:12;;;;;;;7.37;1.47;;;;;;;16.62;84.72;97036.94;4976021;28;20186;-57
2021/09/28 02:25:38;;;;;;;3.33;1.20;;;;;;;16.74;84.22;97033.13;4975918;28;20209;-57
2021/09/28 02:28:04;;;;;;;2.47;1.30;;;;;;;16.84;84.22;97032.44;4976377;28;20173;-53
2021/09/28 02:30:30;;;;;;;1.00;1.00;;;;;;;16.85;84.25;97026.09;4976189;28;20178;-53
2021/09/28 02:32:55;;;;;;;4.60;1.40;;;;;;;16.90;83.19;97026.97;4975676;28;20455;-53
2021/09/28 02:35:21;;;;;;;4.17;1.30;;;;;;;16.92;83.46;97026.72;4975818;28;20189;-57
2021/09/28 02:37:47;;;;;;;3.10;1.00;;;;;;;16.90;83.35;97034.13;4975923;28;20194;-53
2021/09/28 02:40:13;;;;;;;2.20;1.03;;;;;;;16.96;82.70;97036.56;4975941;28;20457;-57
2021/09/28 02:42:38;;;;;;;2.30;1.20;;;;;;;16.90;82.22;97037.56;4975538;28;20173;-57
2021/09/28 02:45:04;;;;;;;2.10;1.03;;;;;;;16.95;82.24;97031.50;4975784;28;20461;-57
2021/09/28 02:47:30;;;;;;;3.03;1.10;;;;;;;16.89;82.98;97035.16;4975746;28;20174;-53
2021/09/28 02:49:55;;;;;;;1.23;1.10;;;;;;;16.92;82.98;97024.06;4975858;28;20417;-54
2021/09/28 02:52:20;;;;;;;2.03;1.50;;;;;;;16.88;83.28;97031.72;4976351;28;20177;-53
2021/09/28 02:54:46;;;;;;;2.53;1.20;;;;;;;16.93;82.08;97033.59;4975267;28;20555;-53
2021/09/28 02:57:11;;;;;;;3.20;1.30;;;;;;;16.79;82.71;97032.38;4975707;28;20529;-53
2021/09/28 02:59:38;;;;;;;1.20;1.10;;;;;;;16.75;82.77;97033.94;4975727;28;20222;-53
2021/09/28 03:02:03;;;;;;;6.27;1.57;;;;;;;16.51;83.57;97032.56;4975700;28;20593;-57
2021/09/28 03:04:29;;;;;;;4.87;1.30;;;;;;;16.46;84.07;97034.09;4974994;28;20536;-56
2021/09/28 03:06:54;;;;;;;2.23;1.33;;;;;;;16.54;83.91;97035.53;4975488;28;20198;-57
2021/09/28 03:09:19;;;;;;;4.43;1.37;;;;;;;16.39;84.94;97035.31;4975397;28;20197;-57
2021/09/28 03:11:45;;;;;;;2.10;1.40;;;;;;;16.45;84.68;97035.13;4975406;28;20249;-57
2021/09/28 03:14:10;;;;;;;2.80;1.27;;;;;;;16.42;84.69;97032.16;4975112;28;20177;-53
2021/09/28 03:16:36;;;;;;;1.57;1.43;;;;;;;16.41;85.00;97033.22;4975367;28;20268;-53
2021/09/28 03:19:01;;;;;;;4.10;1.83;;;;;;;16.43;84.76;97031.91;4975147;28;20633;-53
2021/09/28 03:21:27;;;;;;;3.37;1.73;;;;;;;16.54;84.20;97034.75;4975096;28;20221;-56
2021/09/28 03:23:52;;;;;;;1.90;1.13;;;;;;;16.32;84.10;97032.03;4974702;28;20174;-57
2021/09/28 03:26:18;;;;;;;4.03;1.37;;;;;;;16.47;83.79;97032.25;4974993;28;20285;-57
2021/09/28 03:28:43;;;;;;;3.00;1.20;;;;;;;16.42;83.82;97040.94;4975167;28;20182;-57
2021/09/28 03:31:09;;;;;;;1.67;1.30;;;;;;;16.45;83.79;97036.97;4975171;28;20533;-57
2021/09/28 03:33:34;;;;;;;2.47;1.50;;;;;;;16.37;83.43;97037.41;4974559;28;20188;-57
2021/09/28 03:35:59;;;;;;;2.00;1.30;;;;;;;16.40;83.33;97035.06;4974968;28;20186;-57
2021/09/28 03:38:25;;;;;;;1.80;1.20;;;;;;;16.33;83.97;97044.25;4973945;28;20284;-53
2021/09/28 03:40:50;;;;;;;3.20;1.80;;;;;;;16.34;84.50;97048.50;4974939;28;20174;-54
2021/09/28 03:43:16;;;;;;;3.03;1.80;;;;;;;16.34;84.09;97044.00;4974623;28;20307;-54
2021/09/28 03:45:41;;;;;;;4.03;1.60;;;;;;;16.33;84.14;97049.53;4974722;28;20293;-54
2021/09/28 03:48:07;;;;;;;4.93;1.90;;;;;;;16.25;84.82;97053.41;4974944;28;20177;-59
2021/09/28 03:50:33;;;;;;;4.27;1.80;;;;;;;16.16;84.70;97046.91;4974856;28;20257;-54
2021/09/28 03:52:58;;;;;;;5.63;3.73;;;;;;;16.17;84.39;97053.03;4974533;28;20406;-54
2021/09/28 03:55:24;;;;;;;3.73;1.57;;;;;;;16.09;84.21;97053.44;4974723;28;20248;-54
2021/09/28 03:57:51;;;;;;;2.00;1.63;;;;;;;16.11;84.18;97049.50;4973551;28;20174;-54
2021/09/28 04:00:18;;;;;;;2.63;1.70;;;;;;;16.06;84.37;97049.44;4974582;28;20626;-57
2021/09/28 04:02:44;;;;;;;5.00;1.67;;;;;;;15.87;85.40;97053.38;4974437;28;20402;-57
2021/09/28 04:05:10;;;;;;;2.90;1.60;;;;;;;15.84;85.73;97050.41;4974739;28;20457;-57
2021/09/28 04:07:37;;;;;;;1.90;1.50;;;;;;;15.68;86.61;97044.06;4974520;28;20225;-58
2021/09/28 04:10:04;;;;;;;3.63;1.40;;;;;;;15.52;87.41;97044.06;4974525;28;20770;-54
2021/09/28 04:12:30;;;;;;;5.30;1.87;;;;;;;15.46;87.23;97045.81;4974600;28;20419;-58
2021/09/28 04:14:57;;;;;;;3.50;1.83;;;;;;;15.52;87.27;97044.88;4974172;28;20430;-58
2021/09/28 04:17:23;;;;;;;2.90;1.80;;;;;;;15.57;86.98;97046.78;4974929;28;20170;-57
2021/09/28 04:19:48;;;;;;;2.40;1.67;;;;;;;15.39;87.93;97053.88;4974627;28;20405;-54
2021/09/28 04:22:13;;;;;;;4.93;2.00;;;;;;;15.57;87.34;97060.03;4974662;28;20766;-53
2021/09/28 04:24:39;;;;;;;2.30;1.50;;;;;;;15.60;87.05;97062.22;4973947;28;20630;-53
2021/09/28 04:27:05;;;;;;;3.17;1.80;;;;;;;15.53;87.17;97057.06;4974573;28;20232;-58
2021/09/28 04:29:31;;;;;;;2.53;1.80;;;;;;;15.51;87.12;97059.13;4974432;28;20181;-53
2021/09/28 04:31:56;;;;;;;6.60;1.77;;;;;;;15.64;86.66;97064.13;4974495;28;20421;-55
2021/09/28 04:34:21;;;;;;;7.37;1.97;;;;;;;15.50;87.20;97057.53;4974052;28;20178;-57
2021/09/28 04:36:47;;;;;;;3.83;1.87;;;;;;;15.60;86.82;97059.56;4974161;28;20187;-53
2021/09/28 04:39:13;;;;;;;3.70;1.80;;;;;;;15.56;87.05;97059.25;4974381;28;20181;-57
2021/09/28 04:41:38;;;;;;;3.50;1.93;;;;;;;15.48;87.50;97061.47;4974470;28;20181;-53
2021/09/28 04:44:04;;;;;;;2.63;1.90;;;;;;;15.42;87.67;97056.09;4973903;28;20418;-57
2021/09/28 04:46:30;;;;;;;2.40;1.70;;;;;;;15.27;88.49;97058.41;4974096;28;20233;-57
2021/09/28 04:48:56;;;;;;;2.70;2.23;;;;;;;15.31;87.66;97059.56;4975707;28;20858;-57
2021/09/28 04:51:21;;;;;;;3.67;2.20;;;;;;;15.34;87.83;97067.00;4978290;28;20188;-53
2021/09/28 04:53:46;;;;;;;6.83;2.20;;;;;;;15.28;87.97;97065.34;4977533;28;20185;-53
2021/09/28 04:56:13;;;;;;;4.00;2.33;;;;;;;15.28;88.23;97064.53;4977697;28;20225;-53
2021/09/28 04:58:38;;;;;;;2.30;2.20;;;;;;;15.34;88.18;97064.38;4977971;28;20202;-53
2021/09/28 05:01:04;;;;;;;2.50;1.80;;;;;;;15.40;87.53;97059.97;4977930;28;20421;-57
2021/09/28 05:03:29;;;;;;;6.10;2.50;;;;;;;15.38;87.90;97067.38;4977409;28;20177;-53
2021/09/28 05:05:55;;;;;;;2.90;2.50;;;;;;;15.41;87.47;97058.97;4977544;28;20689;-53
2021/09/28 05:08:20;;;;;;;2.60;2.10;;;;;;;15.36;87.99;97066.81;4976364;28;20648;-57
2021/09/28 05:10:47;;;;;;;3.50;2.60;;;;;;;15.29;87.50;97064.28;4977802;28;20313;-57
2021/09/28 05:13:13;;;;;;;2.97;2.40;;;;;;;15.26;87.78;97071.91;4977254;28;20174;-53
2021/09/28 05:15:38;;;;;;;4.80;2.67;;;;;;;15.25;87.40;97070.31;4977592;28;20436;-53
2021/09/28 05:18:04;;;;;;;3.63;2.50;;;;;;;15.12;88.43;97071.41;4977369;28;20782;-56
2021/09/28 05:20:30;;;;;;;2.53;2.33;;;;;;;15.14;88.18;97079.09;4977530;28;20260;-53
2021/09/28 05:22:55;;;;;;;3.30;2.47;;;;;;;15.16;88.06;97080.44;4977177;28;20208;-53
2021/09/28 05:25:20;;;;;;;2.83;2.10;;;;;;;15.20;88.26;97073.66;4977544;28;20201;-53
2021/09/28 05:27:46;;;;;;;3.80;2.17;;;;;;;15.29;88.06;97084.69;4977411;28;20178;-53
2021/09/28 05:30:12;;;;;;;3.23;2.10;;;;;;;15.36;87.50;97077.41;4977377;28;20633;-53
2021/09/28 05:32:37;;;;;;;8.87;2.90;;;;;;;15.33;87.72;97076.00;4976964;28;20205;-54
2021/09/28 05:35:03;;;;;;;7.53;3.10;;;;;;;15.46;87.47;97077.59;4977273;28;20550;-57
2021/09/28 05:37:28;;;;;;;2.40;2.30;;;;;;;15.51;86.67;97082.97;4976885;28;20197;-57
2021/09/28 05:39:54;;;;;;;2.90;2.30;;;;;;;15.51;86.52;97082.97;4977244;28;20414;-53
2021/09/28 05:42:19;;;;;;;4.57;2.20;;;;;;;15.52;85.24;97083.78;4977114;28;20170;-53
2021/09/28 05:44:45;;;;;;;4.20;2.13;;;;;;;15.48;85.51;97083.47;4976619;28;20170;-57
2021/09/28 05:47:10;;;;;;;2.57;2.30;;;;;;;15.28;86.11;97089.16;4977064;28;20174;-56
2021/09/28 05:49:38;;;;;;;2.50;2.30;;;;;;;15.27;85.99;97084.91;4976848;28;20182;-53
2021/09/28 05:52:07;;;;;;;6.13;2.60;;;;;;;15.36;85.70;97088.78;4976818;28;20178;-53
2021/09/28 05:54:33;;;;;;;2.60;1.90;;;;;;;15.27;86.06;97089.41;4976522;28;20814;-53
2021/09/28 05:56:58;;;;;;;1.97;1.87;;;;;;;15.30;86.10;97086.28;4976743;28;20421;-53
2021/09/28 05:59:24;;;;;;;5.87;2.17;;;;;;;15.30;86.08;97096.88;4976639;28;20178;-53
2021/09/28 06:01:49;;;;;;;6.53;2.20;;;;;;;15.08;87.31;97093.28;4975950;28;20256;-53
2021/09/28 06:04:15;;;;;;;2.50;2.30;;;;;;;15.03;87.35;97091.34;4976459;28;20189;-57
2021/09/28 06:06:41;;;;;;;3.83;2.00;;;;;;;15.10;87.29;97085.91;4976554;28;20206;-53
2021/09/28 06:09:07;;;;;;;3.50;2.47;;;;;;;15.17;86.99;97092.66;4976733;28;20931;-53
2021/09/28 06:11:32;;;;;;;4.50;2.13;;;;;;;15.18;87.27;97090.81;4976755;28;20170;-53
2021/09/28 06:13:57;;;;;;;3.70;1.87;;;;;;;15.28;86.92;97091.00;4976111;28;20167;-53
2021/09/28 06:16:23;;;;;;;5.67;2.47;;;;;;;15.35;86.53;97091.66;4976271;28;20194;-53
2021/09/28 06:18:48;;;;;;;5.57;2.80;;;;;;;15.45;86.38;97087.38;4976517;28;20201;-53
2021/09/28 06:21:14;;;;;;;2.97;2.00;;;;;;;15.50;86.29;97093.81;4976382;28;20190;-53
2021/09/28 06:23:40;;;;;;;6.93;2.80;;;;;;;15.57;86.29;97091.81;4975845;28;20529;-53
2021/09/28 06:26:05;;;;;;;8.83;3.10;;;;;;;15.65;85.81;97092.25;4976234;28;20253;-53
2021/09/28 06:28:31;;;;;;;5.23;3.10;;;;;;;15.72;85.78;97094.72;4976365;28;20503;-57
2021/09/28 06:30:57;;;;;;;3.20;2.60;;;;;;;15.72;85.94;97095.53;4976218;28;20220;-56
2021/09/28 06:33:23;;;;;;;4.77;2.90;;;;;;;15.82;85.22;97095.69;4975910;28;20170;-53
2021/09/28 06:35:48;;;;;;;3.40;2.63;;;;;;;15.84;84.43;97093.63;4976026;28;20429;-57
2021/09/28 06:38:13;;;;;;;3.63;2.97;;;;;;;15.82;84.70;97090.41;4976058;28;20584;-57
2021/09/28 06:40:39;;;;;;;7.10;3.30;;;;;;;15.78;84.96;97091.91;4976107;28;20205;-53
2021/09/28 06:43:06;;;;;;;6.00;3.10;;;;;;;15.86;85.02;97096.84;4975610;28;20178;-57
2021/09/28 06:45:32;;;;;;;6.10;2.90;;;;;;;15.91;84.85;97102.22;4975700;28;20696;-53
2021/09/28 06:47:58;;;;;;;4.80;2.43;;;;;;;15.85;84.98;97095.22;4975758;28;20449;-53
2021/09/28 06:50:23;;;;;;;7.50;4.47;;;;;;;15.92;84.64;97092.41;4975785;28;20178;-53
2021/09/28 06:52:49;;;;;;;5.20;2.67;;;;;;;15.97;84.49;97085.34;4974198;28;20174;-56
2021/09/28 06:55:14;;;;;;;6.63;2.77;;;;;;;16.06;84.09;97088.41;4975699;28;20668;-57
2021/09/28 06:57:40;;;;;;;4.83;2.27;;;;;;;16.08;84.21;97086.31;4975595;28;20174;-53
2021/09/28 07:00:07;;;;;;;3.83;2.30;;;;;;;16.08;84.50;97091.63;4975650;28;20643;-56
2021/09/28 07:02:32;;;;;;;9.17;2.73;;;;;;;16.11;85.03;97086.63;4975507;28;20198;-53
2021/09/28 07:04:58;;;;;;;6.43;2.83;;;;;;;16.12;84.92;97080.28;4975094;28;20468;-58
2021/09/28 07:07:24;;;;;;;7.40;2.80;;;;;;;16.15;85.46;97082.44;4975621;28;20178;-58
2021/09/28 07:09:50;;;;;;;6.57;2.93;;;;;;;16.22;85.47;97077.78;4975578;28;20225;-54
2021/09/28 07:12:16;;;;;;;6.97;3.00;;;;;;;16.25;85.25;97076.50;4975333;28;20489;-54
2021/09/28 07:14:41;;;;;;;4.93;2.40;;;;;;;16.27;85.16;97082.34;4974782;28;20247;-54
2021/09/28 07:17:07;;;;;;;3.93;2.60;;;;;;;16.21;85.31;97088.63;4975270;28;20338;-57
2021/09/28 07:19:32;;;;;;;2.63;2.43;;;;;;;16.25;85.19;97092.41;4975449;28;20248;-54
2021/09/28 07:21:58;;;;;;;5.13;2.67;;;;;;;16.28;85.10;97078.66;4975374;28;20174;-54
2021/09/28 07:24:23;;;;;;;6.27;2.47;;;;;;;16.32;84.93;97077.13;4974927;28;20576;-57
2021/09/28 07:26:48;;;;;;;4.83;2.70;;;;;;;16.29;85.36;97074.94;4975121;28;20217;-53
2021/09/28 07:29:14;;;;;;;3.40;2.77;;;;;;;16.39;84.92;97075.91;4975178;28;20174;-54
2021/09/28 07:31:39;;;;;;;9.67;3.37;;;;;;;16.49;84.70;97077.13;4975147;28;20197;-54
2021/09/28 07:34:05;;;;;;;5.70;2.90;;;;;;;16.55;84.50;97084.09;4974706;28;20182;-54
2021/09/28 07:36:30;;;;;;;4.73;3.10;;;;;;;16.60;84.57;97076.19;4974987;28;20214;-57
2021/09/28 07:38:56;;;;;;;8.23;3.43;;;;;;;16.61;84.93;97077.81;4974867;28;20522;-57
2021/09/28 07:41:21;;;;;;;6.07;3.30;;;;;;;16.62;85.31;97084.72;4974878;28;20166;-57
2021/09/28 07:43:47;;;;;;;6.37;3.80;;;;;;;16.73;84.46;97094.41;4974553;28;20170;-54
2021/09/28 07:46:12;;;;;;;6.27;3.60;;;;;;;16.73;83.63;97083.81;4974837;28;20673;-54
2021/09/28 07:48:38;;;;;;;4.53;3.20;;;;;;;16.74;83.49;97086.19;4974739;28;20170;-54
2021/09/28 07:51:03;;;;;;;4.07;2.93;;;;;;;16.68;82.90;97086.41;4974770;28;20202;-53
2021/09/28 07:53:28;;;;;;;6.17;3.43;;;;;;;16.68;82.36;97078.44;4974505;28;20229;-57
2021/09/28 07:55:55;;;;;;;6.30;3.20;;;;;;;16.80;82.33;97081.75;4974697;28;20212;-54
2021/09/28 07:58:21;;;;;;;7.70;3.03;;;;;;;16.73;82.97;97081.16;4974576;28;20174;-57
2021/09/28 08:00:46;;;;;;;6.63;3.00;;;;;;;16.77;82.94;97079.59;4974979;28;20775;-57
2021/09/28 08:03:12;;;;;;;5.00;3.37;;;;;;;16.72;83.28;97090.16;4974167;28;20597;-54
2021/09/28 08:05:37;;;;;;;4.03;3.10;;;;;;;16.85;82.50;97093.25;4974340;28;20276;-54
2021/09/28 08:08:03;;;;;;;6.30;2.90;;;;;;;16.90;82.96;97082.72;4974581;28;20185;-57
2021/09/28 08:10:29;;;;;;;4.50;3.10;;;;;;;16.98;82.27;97081.44;4974581;28;20213;-57
2021/09/28 08:12:56;;;;;;;8.73;3.07;;;;;;;17.03;81.96;97077.00;4974176;28;21127;-54
2021/09/28 08:15:21;;;;;;;9.73;3.10;;;;;;;17.15;81.05;97084.84;4974228;28;20218;-54
2021/09/28 08:17:46;;;;;;;9.00;3.37;;;;;;;17.22;80.58;97088.09;4974754;28;20445;-54
2021/09/28 08:20:16;;;;;;;12.93;3.80;;;;;;;17.30;80.40;97088.47;4974447;28;20181;-54
2021/09/28 08:22:41;;;;;;;4.63;3.10;;;;;;;17.22;80.21;97086.25;4974132;28;20586;-54
2021/09/28 08:25:10;;;;;;;8.40;3.97;;;;;;;17.29;80.05;97089.53;4977597;28;20465;-54
2021/09/28 08:30:21;;;;;;;6.93;3.30;;;;;;;17.38;79.95;97093.34;4978524;28;20460;-54
2021/09/28 08:32:46;;;;;;;7.00;3.13;;;;;;;17.33;80.59;97095.13;4977950;28;20417;-54
2021/09/28 08:35:12;;;;;;;3.73;3.00;;;;;;;17.38;80.50;97087.22;4978274;28;20251;-54
2021/09/28 08:37:37;;;;;;;5.40;2.80;;;;;;;17.44;79.47;97086.22;4978040;28;20193;-54
2021/09/28 08:40:03;;;;;;;5.93;3.33;;;;;;;17.46;78.26;97086.78;4978237;28;20178;-57
2021/09/28 08:42:29;;;;;;;9.13;2.63;;;;;;;17.54;78.67;97091.66;4978325;28;20256;-57
2021/09/28 08:44:54;;;;;;;5.80;3.00;;;;;;;17.54;77.79;97091.66;4977569;28;20940;-57
2021/09/28 08:47:49;;;;;;;3.17;2.87;;;;;;;17.56;77.78;97089.56;4978461;28;20170;-58
2021/09/28 08:50:22;;;;;;;5.37;3.50;;;;;;;17.66;78.22;97088.84;4973449;28;20688;-54
2021/09/28 08:52:49;;;;;;;10.00;3.67;;;;;;;17.69;78.20;97088.34;4977474;28;20421;-54
2021/09/28 08:55:15;;;;;;;6.10;3.40;;;;;;;17.89;76.66;97089.31;4977934;28;20425;-54
2021/09/28 08:57:43;;;;;;;3.17;2.80;;;;;;;17.80;76.43;97095.34;4977864;28;20432;-54
2021/09/28 09:00:23;;;;;;;5.20;3.60;;;;;;;17.71;75.58;97091.56;4977877;28;20170;-57
2021/09/28 09:02:49;;;;;;;5.23;3.20;;;;;;;17.76;73.34;97089.75;4977473;28;20405;-57
2021/09/28 09:05:16;;;;;;;5.27;3.60;;;;;;;17.80;73.33;97095.34;4977483;28;20475;-57
2021/09/28 09:07:42;;;;;;;6.03;3.50;;;;;;;17.87;73.36;97086.13;4978022;28;20554;-60
2021/09/28 09:10:10;;;;;;;3.80;2.70;;;;;;;17.93;73.52;97090.44;4977734;28;20734;-57
2021/09/28 09:12:41;;;;;;;4.53;2.60;;;;;;;18.04;72.03;97080.66;4977314;28;20900;-57
2021/09/28 09:15:21;;;;;;;5.47;3.20;;;;;;;18.19;72.01;97083.44;4977611;28;20414;-58
2021/09/28 09:17:49;;;;;;;4.40;3.10;;;;;;;18.26;72.83;97084.81;4977663;28;20923;-57
2021/09/28 09:20:22;;;;;;;3.87;3.40;;;;;;;18.28;71.62;97074.72;4977413;28;20488;-59
2021/09/28 09:22:47;;;;;;;10.20;3.73;;;;;;;18.42;72.61;97077.78;4977076;28;20445;-57
2021/09/28 09:25:21;;;;;;;7.07;4.10;;;;;;;18.51;72.79;97076.22;4977333;28;20487;-58
2021/09/28 09:27:47;;;;;;;5.50;4.40;;;;;;;18.63;71.64;97073.34;4977247;28;20170;-57
2021/09/28 09:30:20;;;;;;;7.33;3.40;;;;;;;18.65;71.76;97071.22;4977349;28;20412;-57
2021/09/28 09:32:46;;;;;;;4.43;4.03;;;;;;;18.69;72.01;97077.66;4976795;28;20663;-54
2021/09/28 09:35:24;;;;;;;10.00;4.03;;;;;;;18.62;71.74;97067.25;4977136;28;20441;-54
2021/09/28 09:37:50;;;;;;;6.10;3.70;;;;;;;18.63;71.13;97065.34;4977175;28;20421;-54
2021/09/28 09:40:40;;;;;;;8.87;4.07;;;;;;;18.74;70.51;97062.50;4977201;28;20445;-58
2021/09/28 09:43:07;;;;;;;9.43;3.60;;;;;;;18.73;69.21;97062.75;4976805;28;20409;-54
2021/09/28 09:45:33;;;;;;;7.83;3.50;;;;;;;18.74;69.02;97059.03;4976910;28;20509;-55
2021/09/28 09:47:59;;;;;;;3.63;3.33;;;;;;;18.69;68.46;97053.69;4977236;28;20752;-58
2021/09/28 09:50:26;;;;;;;4.63;3.87;;;;;;;18.53;69.57;97052.00;4976977;28;20781;-54
2021/09/28 09:52:57;;;;;;;8.17;5.03;;;;;;;18.64;70.01;97045.69;4976578;28;20303;-55
2021/09/28 09:55:31;;;;;;;5.13;3.87;;;;;;;18.70;71.05;97047.31;4976877;28;20437;-58
2021/09/28 09:57:57;;;;;;;4.67;3.77;;;;;;;18.68;70.14;97046.78;4976966;28;20504;-59
2021/09/28 10:00:24;;;;;;;8.27;3.73;;;;;;;18.64;70.35;97040.34;4976860;28;20420;-58
2021/09/28 10:02:49;;;;;;;7.73;4.03;;;;;;;18.66;70.25;97046.22;4976469;28;20442;-57
2021/09/28 10:05:16;;;;;;;6.30;4.70;;;;;;;18.64;69.64;97038.50;4976470;28;20489;-58
2021/09/28 10:07:41;;;;;;;10.97;4.27;;;;;;;18.67;70.10;97042.47;4976736;28;20212;-54
2021/09/28 10:10:09;;;;;;;4.37;3.90;;;;;;;18.61;69.43;97039.00;4976670;28;20441;-54
2021/09/28 10:12:38;;;;;;;10.07;4.27;;;;;;;18.69;70.34;97037.69;4976578;28;20236;-58
2021/09/28 10:15:12;;;;;;;7.07;4.33;;;;;;;18.60;69.65;97040.06;4976502;28;20433;-57
2021/09/28 10:17:40;;;;;;;6.17;3.37;;;;;;;18.74;68.65;97027.06;4976381;28;20416;-58
2021/09/28 10:20:21;;;;;;;3.80;3.37;;;;;;;18.75;67.26;97034.78;4976385;28;20441;-59
2021/09/28 10:22:54;;;;;;;5.70;3.20;;;;;;;18.75;67.11;97028.69;4975943;28;20452;-54
2021/09/28 10:25:22;;;;;;;5.77;4.13;;;;;;;18.78;67.48;97022.81;4976173;28;20527;-58
2021/09/28 10:27:51;;;;;;;4.33;3.80;;;;;;;18.87;68.44;97026.59;4976346;28;20421;-58
2021/09/28 10:30:34;;;;;;;7.57;4.30;;;;;;;18.91;68.02;97035.66;4976100;28;20497;-58
2021/09/28 10:33:06;;;;;;;9.20;3.60;;;;;;;18.96;67.53;97031.16;4975589;28;20421;-54
2021/09/28 10:35:52;;;;;;;4.83;3.53;;;;;;;19.03;67.27;97022.91;4976299;28;20445;-54
2021/09/28 10:38:18;;;;;;;8.53;4.13;;;;;;;19.08;66.46;97017.59;4975771;28;20429;-58
2021/09/28 10:40:48;;;;;;;4.70;2.93;;;;;;;19.09;65.46;97017.34;4975989;28;20771;-55
2021/09/28 10:43:40;;;;;;;3.53;3.17;;;;;;;19.07;65.36;97010.66;4975752;28;20182;-54
2021/09/28 10:46:05;;;;;;;5.47;3.93;;;;;;;19.11;65.79;97003.75;4974052;28;21071;-54
2021/09/28 10:48:36;;;;;;;5.90;3.30;;;;;;;19.10;65.26;97002.94;4975871;28;20504;-57
2021/09/28 10:51:14;;;;;;;6.50;3.37;;;;;;;19.13;62.90;96999.75;4976004;28;20197;-54
2021/09/28 10:53:52;;;;;;;5.33;3.03;;;;;;;19.22;62.66;96995.50;4975359;28;20471;-57
2021/09/28 10:56:19;;;;;;;6.53;3.50;;;;;;;19.20;62.13;96992.28;4975809;28;20504;-59
2021/09/28 10:58:55;;;;;;;5.63;3.40;;;;;;;19.27;62.60;96989.41;4975799;28;20417;-54
2021/09/28 11:01:26;;;;;;;5.10;3.40;;;;;;;19.31;64.96;96988.63;4975696;28;20507;-54
2021/09/28 11:03:57;;;;;;;4.40;3.50;;;;;;;19.38;65.81;96991.03;4973947;28;20765;-57
2021/09/28 11:06:40;;;;;;;5.80;3.60;;;;;;;19.37;63.47;96986.75;4975666;28;20457;-54
2021/09/28 11:09:09;;;;;;;6.47;3.33;;;;;;;19.42;63.57;96979.56;4975582;28;20907;-57
2021/09/28 11:11:35;;;;;;;5.47;3.90;;;;;;;19.25;59.83;96986.19;4975481;28;20437;-58
2021/09/28 11:14:03;;;;;;;6.30;3.93;;;;;;;19.41;62.45;96985.97;4974969;28;20502;-57
2021/09/28 11:16:39;;;;;;;5.53;3.80;;;;;;;19.51;64.26;96973.72;4975197;28;20198;-58
2021/09/28 11:19:04;;;;;;;7.63;4.10;;;;;;;19.62;64.95;96978.75;4975451;28;20468;-54
2021/09/28 11:21:29;;;;;;;4.97;4.10;;;;;;;19.66;65.16;96973.72;4975413;28;20417;-57
2021/09/28 11:23:55;;;;;;;10.50;4.20;;;;;;;19.66;63.92;96982.50;4974810;28;20185;-58
2021/09/28 11:26:38;;;;;;;7.67;4.83;;;;;;;19.85;63.13;96975.56;4975256;28;20206;-54
2021/09/28 11:29:04;;;;;;;6.30;3.90;;;;;;;19.82;61.84;96984.09;4975244;28;20174;-54
2021/09/28 11:31:32;;;;;;;6.67;3.63;;;;;;;19.85;61.23;96974.75;4975070;28;20448;-58
2021/09/28 11:34:00;;;;;;;6.17;3.47;;;;;;;19.88;61.15;96964.34;4974869;28;20414;-54
2021/09/28 11:36:40;;;;;;;4.33;3.47;;;;;;;19.74;60.75;96967.81;4974940;28;20434;-54